Time;durP1;ratioP1;P1;durP2;ratioP2;P2;SDS_P1;SDS_P2;PMS_P1;PMS_P2;Temp;Humidity;BMP_temperature;BMP_pressure;BME280_temperature;BME280_humidity;BME280_pressure;Samples;Min_cycle;Max_cycle;Signal;HPM_P1;HPM_P2
2023/09/01 00:00:09;;;;;;;8.65;4.30;;;12.70;99.90;;;;;;5115024;27;20435;-77
2023/09/01 00:02:37;;;;;;;7.65;4.75;;;12.50;99.90;;;;;;5097811;28;20426;-77
2023/09/01 00:05:03;;;;;;;6.03;4.25;;;12.40;99.90;;;;;;5102381;28;20456;-76
2023/09/01 00:07:29;;;;;;;7.97;4.28;;;12.50;99.90;;;;;;5119600;28;20408;-77
2023/09/01 00:09:55;;;;;;;8.45;4.53;;;12.60;99.90;;;;;;5113802;28;20805;-77
2023/09/01 00:12:21;;;;;;;7.70;4.93;;;;;;;;;;5079059;27;20418;-77
2023/09/01 00:14:46;;;;;;;13.80;5.68;;;12.50;99.90;;;;;;5115356;28;20442;-77
2023/09/01 00:17:13;;;;;;;9.57;5.18;;;;;;;;;;5081223;28;21013;-77
2023/09/01 00:19:40;;;;;;;8.95;5.55;;;12.30;99.90;;;;;;5114847;28;20414;-76
2023/09/01 00:22:05;;;;;;;10.20;5.70;;;12.30;99.90;;;;;;5096531;28;20400;-77
2023/09/01 00:24:32;;;;;;;10.02;5.82;;;;;;;;;;5099977;28;20407;-76
2023/09/01 00:26:59;;;;;;;8.88;5.55;;;;;;;;;;5099500;28;20436;-77
2023/09/01 00:29:25;;;;;;;9.82;5.25;;;;;;;;;;5115134;28;20838;-77
2023/09/01 00:31:51;;;;;;;10.30;5.90;;;12.30;99.90;;;;;;5098117;28;20910;-76
2023/09/01 00:34:17;;;;;;;8.43;5.28;;;12.00;99.90;;;;;;5114085;28;20471;-77
2023/09/01 00:36:43;;;;;;;11.20;5.50;;;12.10;99.90;;;;;;5130593;27;20557;-76
2023/09/01 00:39:09;;;;;;;10.40;5.38;;;;;;;;;;5097186;28;20767;-76
2023/09/01 00:41:35;;;;;;;10.35;5.88;;;12.10;99.90;;;;;;5097920;28;20403;-76
2023/09/01 00:44:01;;;;;;;11.27;5.50;;;12.10;99.90;;;;;;5114638;28;20523;-76
2023/09/01 00:46:28;;;;;;;9.23;5.60;;;12.10;99.90;;;;;;5113514;28;20909;-76
2023/09/01 00:48:57;;;;;;;8.27;5.03;;;12.10;99.90;;;;;;5114322;28;20424;-75
2023/09/01 00:51:25;;;;;;;10.05;5.40;;;12.10;99.90;;;;;;5114206;28;20400;-75
2023/09/01 00:53:51;;;;;;;10.77;5.20;;;;;;;;;;5082080;28;20416;-76
2023/09/01 00:56:19;;;;;;;8.65;5.10;;;12.20;99.90;;;;;;5111400;28;20746;-76
2023/09/01 00:58:45;;;;;;;8.10;4.72;;;12.00;99.90;;;;;;5093920;28;20405;-76
2023/09/01 01:01:11;;;;;;;9.30;4.75;;;12.10;99.90;;;;;;5076855;28;20746;-77
2023/09/01 01:03:38;;;;;;;10.48;4.70;;;12.10;99.90;;;;;;5094024;28;20402;-77
2023/09/01 01:06:30;;;;;;;9.60;4.90;;;12.00;99.90;;;;;;5130544;27;20418;-77
2023/09/01 01:09:26;;;;;;;8.50;4.78;;;12.10;99.90;;;;;;5114479;28;20416;-75
2023/09/01 01:12:42;;;;;;;9.55;4.80;;;12.00;99.90;;;;;;5097011;28;20396;-77
2023/09/01 01:15:09;;;;;;;11.68;4.97;;;;;;;;;;5109496;28;20396;-77
2023/09/01 01:17:39;;;;;;;8.63;4.70;;;;;;;;;;5112118;28;20476;-77
2023/09/01 01:20:14;;;;;;;9.48;4.70;;;;;;;;;;5113874;28;20493;-77
2023/09/01 01:23:05;;;;;;;9.45;4.75;;;11.50;99.90;;;;;;5112147;28;20503;-77
2023/09/01 01:25:31;;;;;;;9.10;4.43;;;11.90;99.90;;;;;;5097746;28;20408;-77
2023/09/01 01:27:57;;;;;;;8.43;4.55;;;;;;;;;;5130618;27;20428;-77
2023/09/01 01:30:23;;;;;;;8.88;4.32;;;11.90;99.90;;;;;;5090793;28;20428;-77
2023/09/01 01:32:49;;;;;;;8.90;4.70;;;11.70;99.90;;;;;;5076302;28;20399;-77
2023/09/01 01:35:15;;;;;;;7.75;4.47;;;;;;;;;;5092913;28;20398;-77
2023/09/01 01:37:50;;;;;;;9.20;4.88;;;11.80;99.90;;;;;;5127302;27;20408;-77
2023/09/01 01:40:18;;;;;;;7.03;4.30;;;;;;;;;;5126723;27;20916;-77
2023/09/01 01:42:47;;;;;;;10.00;4.63;;;;;;;;;;5110703;28;20517;-77
2023/09/01 01:45:20;;;;;;;9.63;4.63;;;11.70;99.90;;;;;;5075799;28;20433;-77
2023/09/01 01:47:47;;;;;;;7.53;4.65;;;11.80;99.90;;;;;;5112249;28;20430;-77
2023/09/01 01:50:13;;;;;;;8.90;4.45;;;11.80;99.90;;;;;;5097057;28;20389;-85
2023/09/01 01:52:39;;;;;;;10.23;4.63;;;;;;;;;;5097912;28;20440;-84
2023/09/01 01:55:07;;;;;;;7.93;4.07;;;;;;;;;;5097983;28;20396;-86
2023/09/01 01:57:33;;;;;;;8.05;4.35;;;11.90;99.90;;;;;;5104588;28;20421;-83
2023/09/01 01:59:59;;;;;;;7.38;4.22;;;;;;;;;;5076718;28;20459;-84
2023/09/01 02:02:25;;;;;;;9.13;4.30;;;11.80;99.90;;;;;;5094654;28;20412;-84
2023/09/01 02:04:51;;;;;;;8.65;4.32;;;;;;;;;;5095282;28;20398;-84
2023/09/01 02:07:17;;;;;;;7.88;4.10;;;;;;;;;;5130102;27;20421;-84
2023/09/01 02:09:43;;;;;;;8.13;4.40;;;;;;;;;;5129733;27;20881;-85
2023/09/01 02:12:09;;;;;;;7.53;4.32;;;11.90;99.90;;;;;;5112837;27;20490;-84
2023/09/01 02:14:36;;;;;;;7.43;4.57;;;;;;;;;;5078563;28;20406;-85
2023/09/01 02:17:03;;;;;;;10.68;4.63;;;;;;;;;;5130209;27;20406;-83
2023/09/01 02:19:29;;;;;;;10.10;5.10;;;12.00;99.90;;;;;;5078483;28;20398;-84
2023/09/01 02:21:55;;;;;;;7.85;4.22;;;;;;;;;;5096374;28;20420;-84
2023/09/01 02:24:21;;;;;;;8.30;4.47;;;;;;;;;;5113537;28;20410;-84
2023/09/01 02:26:47;;;;;;;9.88;4.03;;;11.60;99.90;;;;;;5117637;28;20400;-84
2023/09/01 02:29:13;;;;;;;7.60;4.03;;;11.80;99.90;;;;;;5100093;28;20458;-85
2023/09/01 02:31:39;;;;;;;9.70;4.53;;;;;;;;;;5097974;28;20479;-85
2023/09/01 02:34:05;;;;;;;10.30;4.70;;;11.60;99.90;;;;;;5114496;28;20948;-84
2023/09/01 02:36:35;;;;;;;7.88;4.45;;;11.60;99.90;;;;;;5079670;28;20408;-83
2023/09/01 02:39:01;;;;;;;11.48;4.47;;;;;;;;;;5113877;28;20415;-84
2023/09/01 02:41:28;;;;;;;9.15;4.47;;;;;;;;;;5113542;28;20400;-84
2023/09/01 02:43:54;;;;;;;9.32;4.50;;;;;;;;;;5113412;28;20416;-84
2023/09/01 02:46:20;;;;;;;9.73;4.55;;;;;;;;;;5113599;28;20400;-84
2023/09/01 02:48:47;;;;;;;9.20;4.60;;;;;;;;;;5096072;28;20617;-85
2023/09/01 02:51:12;;;;;;;11.07;4.97;;;11.50;99.90;;;;;;5100586;28;20812;-82
2023/09/01 02:53:39;;;;;;;9.17;4.60;;;;;;;;;;5093144;28;20448;-84
2023/09/01 02:56:05;;;;;;;12.30;4.82;;;;;;;;;;5093950;28;20416;-83
2023/09/01 02:58:31;;;;;;;7.07;4.70;;;;;;;;;;5104158;28;20751;-83
2023/09/01 03:00:58;;;;;;;8.82;4.50;;;;;;;;;;5077973;28;20949;-85
2023/09/01 03:03:24;;;;;;;9.77;4.25;;;;;;;;;;5076966;28;20402;-83
2023/09/01 03:05:51;;;;;;;8.15;4.35;;;11.10;99.90;;;;;;5102723;28;20412;-84
2023/09/01 03:08:23;;;;;;;9.93;4.40;;;11.10;99.90;;;;;;5118631;28;20405;-82
2023/09/01 03:10:49;;;;;;;8.30;4.40;;;;;;;;;;5111718;28;20388;-83
2023/09/01 03:13:15;;;;;;;9.95;4.68;;;;;;;;;;5127095;28;20397;-83
2023/09/01 03:15:42;;;;;;;9.30;4.30;;;;;;;;;;5100169;28;20410;-84
2023/09/01 03:18:10;;;;;;;8.93;5.05;;;;;;;;;;5117803;28;20411;-84
2023/09/01 03:20:37;;;;;;;9.97;4.57;;;11.00;99.90;;;;;;5101086;28;20456;-83
2023/09/01 03:23:03;;;;;;;8.43;4.57;;;10.80;99.90;;;;;;5101063;28;20434;-83
2023/09/01 03:25:29;;;;;;;8.80;4.30;;;10.70;99.90;;;;;;5117758;27;20919;-83
2023/09/01 03:27:55;;;;;;;8.68;4.32;;;;;;;;;;5083483;28;20919;-84
2023/09/01 03:30:21;;;;;;;7.78;4.20;;;;;;;;;;5116074;27;20482;-85
2023/09/01 03:32:47;;;;;;;9.35;4.15;;;;;;;;;;5117140;28;20457;-84
2023/09/01 03:35:13;;;;;;;7.20;4.07;;;;;;;;;;5117435;28;20380;-84
2023/09/01 03:37:39;;;;;;;6.90;4.20;;;11.10;99.90;;;;;;5117602;28;20573;-83
2023/09/01 03:40:08;;;;;;;8.10;4.30;;;;;;;;;;5117371;28;20404;-83
2023/09/01 03:42:35;;;;;;;8.07;4.00;;;10.80;99.90;;;;;;5116521;28;20404;-83
2023/09/01 03:45:01;;;;;;;9.30;4.20;;;;;;;;;;5115191;27;20428;-84
2023/09/01 03:47:27;;;;;;;7.18;3.90;;;11.00;99.90;;;;;;5116900;28;20424;-83
2023/09/01 03:49:53;;;;;;;6.68;3.80;;;;;;;;;;5117306;28;20423;-83
2023/09/01 03:52:22;;;;;;;8.23;3.88;;;;;;;;;;5118379;28;20423;-82
2023/09/01 03:54:47;;;;;;;9.05;4.22;;;10.80;99.90;;;;;;5102666;28;20748;-83
2023/09/01 03:57:15;;;;;;;7.20;4.00;;;;;;;;;;5116409;28;20420;-84
2023/09/01 03:59:42;;;;;;;11.25;4.75;;;;;;;;;;5116363;28;20485;-84
2023/09/01 04:02:09;;;;;;;7.65;4.38;;;;;;;;;;5116818;28;20396;-83
2023/09/01 04:04:35;;;;;;;8.80;4.45;;;;;;;;;;5114914;28;20483;-83
2023/09/01 04:07:01;;;;;;;10.25;4.47;;;;;;;;;;5114408;28;20906;-85
2023/09/01 04:09:27;;;;;;;7.35;4.20;;;;;;;;;;5114805;28;20433;-84
2023/09/01 04:11:54;;;;;;;9.35;4.22;;;10.60;99.90;;;;;;5089508;28;20448;-83
2023/09/01 04:14:20;;;;;;;11.20;4.67;;;;;;;;;;5113892;27;20505;-83
2023/09/01 04:16:46;;;;;;;8.20;4.47;;;10.60;99.90;;;;;;5097760;28;20419;-82
2023/09/01 04:19:12;;;;;;;7.93;4.40;;;;;;;;;;5113782;28;20923;-85
2023/09/01 04:21:38;;;;;;;10.00;4.47;;;;;;;;;;5114299;28;20389;-83
2023/09/01 04:24:04;;;;;;;9.93;4.60;;;;;;;;;;5114188;28;20464;-84
2023/09/01 04:26:31;;;;;;;6.90;4.40;;;10.80;99.90;;;;;;5097822;28;20487;-83
2023/09/01 04:28:57;;;;;;;6.43;4.13;;;;;;;;;;5094986;28;20447;-83
2023/09/01 04:31:27;;;;;;;9.77;4.07;;;10.90;99.90;;;;;;5096926;28;20736;-84
2023/09/01 04:33:54;;;;;;;7.07;4.32;;;;;;;;;;5114288;28;20415;-83
2023/09/01 04:36:20;;;;;;;11.27;4.63;;;;;;;;;;5114537;28;20392;-84
2023/09/01 04:38:46;;;;;;;10.68;5.28;;;;;;;;;;5114894;28;20443;-84
2023/09/01 04:41:12;;;;;;;8.63;4.78;;;;;;;;;;5113952;28;20407;-84
2023/09/01 04:43:38;;;;;;;9.63;4.90;;;10.60;99.90;;;;;;5104133;28;20427;-84
2023/09/01 04:46:05;;;;;;;10.32;5.40;;;;;;;;;;5114237;28;20752;-82
2023/09/01 04:48:31;;;;;;;10.57;5.35;;;;;;;;;;5114246;28;20979;-83
2023/09/01 04:51:00;;;;;;;11.70;5.38;;;;;;;;;;5096976;28;20475;-82
2023/09/01 04:53:26;;;;;;;10.98;5.47;;;10.80;99.90;;;;;;5114196;28;20427;-82
2023/09/01 04:55:52;;;;;;;15.93;6.50;;;10.70;99.90;;;;;;5096054;28;20428;-83
2023/09/01 04:58:17;;;;;;;15.93;6.00;;;10.80;99.90;;;;;;5114659;28;20498;-82
2023/09/01 05:00:44;;;;;;;9.47;5.27;;;10.70;99.90;;;;;;5096730;28;20414;-83
2023/09/01 05:03:10;;;;;;;10.32;4.90;;;;;;;;;;5112509;28;20776;-82
2023/09/01 05:05:35;;;;;;;14.02;5.95;;;10.80;99.90;;;;;;5109710;28;20413;-83
2023/09/01 05:08:01;;;;;;;9.20;5.32;;;;;;;;;;5110885;28;20433;-83
2023/09/01 05:10:27;;;;;;;9.23;5.72;;;10.70;99.90;;;;;;5128260;27;20459;-83
2023/09/01 05:12:53;;;;;;;9.98;5.50;;;;;;;;;;5111715;28;20410;-82
2023/09/01 05:15:19;;;;;;;8.00;5.30;;;10.70;99.90;;;;;;5111171;28;20398;-83
2023/09/01 05:17:46;;;;;;;8.47;5.47;;;10.50;99.90;;;;;;5076422;28;20473;-83
2023/09/01 05:20:12;;;;;;;8.35;4.90;;;;;;;;;;5078266;28;20761;-83
2023/09/01 05:22:39;;;;;;;8.20;4.60;;;;;;;;;;5078499;28;20406;-83
2023/09/01 05:25:05;;;;;;;10.70;5.37;;;;;;;;;;5126989;27;20811;-83
2023/09/01 05:27:31;;;;;;;9.98;4.95;;;;;;;;;;5092466;28;20422;-84
2023/09/01 05:29:57;;;;;;;11.07;4.97;;;;;;;;;;5097405;27;20426;-83
2023/09/01 05:32:23;;;;;;;9.43;4.63;;;;;;;;;;5092446;28;20881;-84
2023/09/01 05:34:50;;;;;;;6.75;4.22;;;;;;;;;;5092908;28;20405;-83
2023/09/01 05:37:16;;;;;;;8.57;4.83;;;;;;;;;;5092740;28;20945;-83
2023/09/01 05:39:42;;;;;;;9.82;4.28;;;;;;;;;;5076116;28;20405;-84
2023/09/01 05:42:08;;;;;;;8.23;4.50;;;;;;;;;;5092668;28;20437;-83
2023/09/01 05:44:35;;;;;;;8.57;4.60;;;11.00;99.90;;;;;;5095722;27;20479;-83
2023/09/01 05:47:03;;;;;;;9.32;5.07;;;11.20;99.90;;;;;;5109406;28;20421;-83
2023/09/01 05:49:33;;;;;;;8.65;5.00;;;11.20;99.90;;;;;;5143439;27;20416;-81
2023/09/01 05:52:00;;;;;;;9.40;4.88;;;11.30;99.90;;;;;;5095484;28;20480;-83
2023/09/01 05:54:26;;;;;;;8.65;4.88;;;11.30;99.90;;;;;;5110132;28;20408;-84
2023/09/01 05:56:52;;;;;;;8.50;5.53;;;11.50;99.90;;;;;;5127321;27;20451;-83
2023/09/01 05:59:18;;;;;;;12.20;5.40;;;;;;;;;;5075727;28;20401;-83
2023/09/01 06:01:44;;;;;;;11.43;5.88;;;11.60;99.90;;;;;;5126500;27;20402;-83
2023/09/01 06:04:10;;;;;;;10.00;5.97;;;;;;;;;;5077872;28;20400;-83
2023/09/01 06:06:37;;;;;;;11.30;5.95;;;;;;;;;;5150201;27;20946;-83
2023/09/01 06:09:04;;;;;;;10.40;6.38;;;11.70;99.90;;;;;;5125604;28;20487;-83
2023/09/01 06:11:30;;;;;;;9.20;6.15;;;;;;;;;;5125045;28;20812;-84
2023/09/01 06:13:57;;;;;;;10.25;5.85;;;;;;;;;;5097809;28;20403;-84
2023/09/01 06:16:25;;;;;;;10.00;6.35;;;;;;;;;;5110314;28;20440;-81
2023/09/01 06:18:51;;;;;;;12.50;6.95;;;12.00;99.90;;;;;;5096346;28;20408;-83
2023/09/01 06:21:17;;;;;;;11.68;6.15;;;12.00;99.90;;;;;;5105537;28;20435;-83
2023/09/01 06:23:44;;;;;;;12.00;6.72;;;12.20;99.90;;;;;;5129713;27;20495;-84
2023/09/01 06:26:14;;;;;;;10.75;6.72;;;12.50;99.90;;;;;;5107577;28;20431;-83
2023/09/01 06:28:41;;;;;;;9.32;5.75;;;12.50;99.90;;;;;;5110725;28;20430;-83
2023/09/01 06:31:09;;;;;;;11.43;6.03;;;12.80;99.90;;;;;;5112184;28;20496;-84
2023/09/01 06:33:35;;;;;;;9.47;5.80;;;12.90;99.90;;;;;;5095541;28;20428;-83
2023/09/01 06:36:02;;;;;;;9.18;5.97;;;12.90;99.90;;;;;;5095516;28;20435;-84
2023/09/01 06:38:27;;;;;;;10.55;5.75;;;12.80;99.90;;;;;;5112090;28;20407;-84
2023/09/01 06:40:53;;;;;;;9.77;5.70;;;13.10;99.90;;;;;;5110709;28;20408;-84
2023/09/01 06:43:19;;;;;;;11.40;5.43;;;13.40;99.90;;;;;;5111139;28;20431;-83
2023/09/01 06:45:44;;;;;;;8.63;5.40;;;13.50;99.90;;;;;;5077748;28;20444;-84
2023/09/01 06:48:10;;;;;;;11.63;5.50;;;13.50;99.90;;;;;;5095214;28;20509;-84
2023/09/01 06:50:38;;;;;;;8.93;5.07;;;13.60;99.90;;;;;;5095655;28;20487;-83
2023/09/01 06:53:07;;;;;;;9.07;4.75;;;13.50;99.90;;;;;;5107295;28;20408;-84
2023/09/01 06:55:32;;;;;;;10.52;4.90;;;13.70;99.90;;;;;;5112037;28;20392;-84
2023/09/01 06:57:59;;;;;;;10.00;4.82;;;13.80;99.90;;;;;;5110175;28;20981;-84
2023/09/01 07:00:25;;;;;;;8.48;4.50;;;13.80;99.90;;;;;;5094714;28;20408;-76
2023/09/01 07:02:51;;;;;;;8.38;4.22;;;13.80;99.90;;;;;;5109350;28;20403;-76
2023/09/01 07:05:17;;;;;;;6.63;3.90;;;14.10;99.90;;;;;;5091923;28;20423;-76
2023/09/01 07:07:43;;;;;;;8.55;3.80;;;14.20;99.90;;;;;;5093853;28;20553;-75
2023/09/01 07:10:09;;;;;;;6.22;3.42;;;14.40;99.90;;;;;;5093807;28;20487;-75
2023/09/01 07:12:34;;;;;;;8.25;3.30;;;14.40;99.90;;;;;;5077102;28;20469;-76
2023/09/01 07:15:02;;;;;;;8.70;3.60;;;14.50;99.90;;;;;;5110932;28;20508;-76
2023/09/01 07:17:28;;;;;;;5.43;3.13;;;14.70;99.90;;;;;;5108951;28;20443;-76
2023/09/01 07:19:54;;;;;;;5.70;3.33;;;14.70;99.90;;;;;;5092906;28;20903;-82
2023/09/01 07:22:19;;;;;;;6.97;3.40;;;15.00;99.90;;;;;;5077613;28;20436;-82
2023/09/01 07:24:45;;;;;;;6.47;3.27;;;15.00;99.90;;;;;;5094404;28;20892;-82
2023/09/01 07:27:11;;;;;;;6.38;3.03;;;15.10;99.90;;;;;;5111288;28;20400;-76
2023/09/01 07:29:37;;;;;;;5.60;3.10;;;15.00;99.90;;;;;;5088413;28;20418;-76
2023/09/01 07:32:03;;;;;;;5.43;3.03;;;15.10;99.90;;;;;;5110963;28;20811;-76
2023/09/01 07:34:29;;;;;;;6.57;3.10;;;15.20;99.90;;;;;;5093553;28;20491;-76
2023/09/01 07:36:55;;;;;;;6.33;2.70;;;14.90;99.90;;;;;;5110492;28;20457;-76
2023/09/01 07:39:20;;;;;;;5.03;3.00;;;15.10;99.90;;;;;;5110377;28;20422;-76
2023/09/01 07:41:46;;;;;;;5.67;3.10;;;15.40;99.90;;;;;;5110522;28;20503;-76
2023/09/01 07:44:16;;;;;;;6.20;3.10;;;15.20;99.90;;;;;;5104584;28;20496;-76
2023/09/01 07:46:42;;;;;;;5.38;3.10;;;15.30;99.90;;;;;;5085560;28;20415;-76
2023/09/01 07:49:08;;;;;;;7.70;2.90;;;15.40;99.90;;;;;;5110360;28;20451;-76
2023/09/01 07:51:34;;;;;;;6.90;2.80;;;15.20;99.90;;;;;;5093570;28;20458;-76
2023/09/01 07:54:00;;;;;;;6.30;3.10;;;15.10;99.90;;;;;;5110337;28;20403;-76
2023/09/01 07:56:26;;;;;;;7.40;3.40;;;15.20;99.90;;;;;;5113275;28;20483;-76
2023/09/01 07:58:51;;;;;;;6.60;3.03;;;15.30;99.90;;;;;;5104075;28;20414;-76
2023/09/01 08:01:17;;;;;;;7.85;3.00;;;15.40;99.90;;;;;;5093795;28;20401;-76
2023/09/01 08:03:43;;;;;;;6.70;2.83;;;15.60;99.90;;;;;;5077167;28;20495;-76
2023/09/01 08:06:09;;;;;;;7.78;2.90;;;15.40;99.90;;;;;;5093728;28;20409;-76
2023/09/01 08:08:34;;;;;;;8.00;2.90;;;15.40;99.90;;;;;;5060084;28;20424;-76
2023/09/01 08:11:00;;;;;;;5.90;2.67;;;15.80;99.90;;;;;;5110445;28;20390;-76
2023/09/01 08:13:27;;;;;;;6.33;2.70;;;14.80;99.90;;;;;;5102883;28;20444;-76
2023/09/01 08:15:53;;;;;;;5.90;2.63;;;15.50;99.90;;;;;;5097062;28;20450;-77
2023/09/01 08:18:19;;;;;;;4.93;2.40;;;16.00;99.90;;;;;;5096932;28;20400;-76
2023/09/01 08:20:46;;;;;;;5.22;2.47;;;16.00;99.90;;;;;;5113699;28;20396;-76
2023/09/01 08:23:12;;;;;;;6.00;2.67;;;16.10;99.90;;;;;;5113854;28;20748;-76
2023/09/01 08:25:38;;;;;;;7.00;2.60;;;16.40;99.90;;;;;;5095018;27;20921;-76
2023/09/01 08:28:05;;;;;;;6.28;2.67;;;16.20;99.90;;;;;;5079651;28;20431;-77
2023/09/01 08:30:31;;;;;;;6.30;2.40;;;16.40;99.90;;;;;;5113492;28;20407;-76
2023/09/01 08:32:56;;;;;;;8.82;2.25;;;16.60;99.90;;;;;;5096560;28;20463;-76
2023/09/01 08:35:22;;;;;;;4.95;2.10;;;16.70;99.90;;;;;;5096545;28;20434;-76
2023/09/01 08:37:48;;;;;;;6.07;2.20;;;17.00;99.90;;;;;;5113663;28;20417;-76
2023/09/01 08:40:13;;;;;;;5.18;2.08;;;17.00;99.90;;;;;;5108060;28;20962;-77
2023/09/01 08:42:48;;;;;;;5.32;1.98;;;16.10;99.90;;;;;;5084354;28;20939;-76
2023/09/01 08:45:15;;;;;;;6.07;2.20;;;17.00;99.90;;;;;;5096069;28;20979;-76
2023/09/01 08:47:48;;;;;;;4.82;1.73;;;16.90;99.90;;;;;;5113139;28;20419;-76
2023/09/01 08:50:15;;;;;;;4.57;2.00;;;16.80;99.90;;;;;;5096539;28;20392;-76
2023/09/01 08:52:46;;;;;;;6.18;2.28;;;16.90;99.90;;;;;;5096353;28;20415;-77
2023/09/01 08:55:18;;;;;;;5.95;2.08;;;17.20;99.90;;;;;;5079482;28;20740;-77
2023/09/01 08:57:47;;;;;;;4.60;1.73;;;16.90;99.90;;;;;;5098325;28;20495;-76
2023/09/01 09:00:14;;;;;;;5.80;1.75;;;17.20;99.90;;;;;;5078410;28;20418;-76
2023/09/01 09:02:44;;;;;;;5.40;1.95;;;17.20;99.90;;;;;;5113903;28;20416;-78
2023/09/01 09:05:13;;;;;;;7.20;1.87;;;17.20;99.90;;;;;;5110020;28;20866;-77
2023/09/01 09:07:39;;;;;;;4.57;1.80;;;17.60;99.90;;;;;;5114100;28;20423;-76
2023/09/01 09:10:06;;;;;;;4.40;1.55;;;17.50;99.90;;;;;;5112982;28;20396;-76
2023/09/01 09:12:37;;;;;;;4.35;1.70;;;17.50;99.90;;;;;;5098373;28;20402;-76
2023/09/01 09:15:03;;;;;;;5.40;1.58;;;17.40;99.90;;;;;;5134904;27;20398;-76
2023/09/01 09:17:44;;;;;;;3.00;1.38;;;17.30;99.90;;;;;;5106629;28;20400;-78
2023/09/01 09:20:12;;;;;;;4.88;1.50;;;17.50;99.90;;;;;;5100502;28;20801;-76
2023/09/01 09:23:00;;;;;;;4.80;1.40;;;17.60;99.90;;;;;;5117183;28;20457;-76
2023/09/01 09:25:35;;;;;;;4.60;1.70;;;17.80;99.90;;;;;;5112781;28;20403;-76
2023/09/01 09:28:11;;;;;;;5.13;1.58;;;17.60;99.90;;;;;;5092417;28;20495;-76
2023/09/01 09:30:36;;;;;;;5.47;1.67;;;19.00;99.90;;;;;;5075492;28;20409;-77
2023/09/01 09:33:06;;;;;;;5.00;2.03;;;17.90;99.90;;;;;;5058564;28;21400;-77
2023/09/01 09:35:47;;;;;;;6.10;1.63;;;17.70;99.90;;;;;;5093351;28;20477;-78
2023/09/01 09:38:13;;;;;;;5.38;1.60;;;17.70;99.90;;;;;;5095693;28;20487;-77
2023/09/01 09:40:38;;;;;;;5.23;1.80;;;17.60;99.90;;;;;;5130096;27;20482;-77
2023/09/01 09:43:07;;;;;;;5.70;1.60;;;17.60;99.90;;;;;;5112579;28;20951;-77
2023/09/01 09:45:34;;;;;;;5.85;1.80;;;17.50;99.90;;;;;;5112009;28;20465;-77
2023/09/01 09:48:05;;;;;;;6.68;1.58;;;18.20;99.90;;;;;;5105957;28;20421;-76
2023/09/01 09:50:32;;;;;;;4.07;1.52;;;17.80;99.90;;;;;;5125851;27;20893;-76
2023/09/01 09:53:00;;;;;;;4.50;1.80;;;18.00;99.90;;;;;;5091680;28;20437;-77
2023/09/01 09:55:28;;;;;;;4.85;1.50;;;18.00;99.90;;;;;;5091918;28;20398;-78
2023/09/01 09:58:08;;;;;;;4.20;1.60;;;18.00;99.90;;;;;;5142349;27;20435;-78
2023/09/01 10:01:01;;;;;;;4.30;1.50;;;17.80;99.90;;;;;;5094592;28;20410;-78
2023/09/01 10:03:31;;;;;;;4.95;1.40;;;18.00;99.90;;;;;;5099978;28;20501;-78
2023/09/01 10:05:59;;;;;;;7.07;1.80;;;17.80;99.90;;;;;;5074660;28;20409;-78
2023/09/01 10:08:25;;;;;;;4.78;1.67;;;17.80;99.90;;;;;;5125307;27;20498;-78
2023/09/01 10:10:52;;;;;;;5.90;1.60;;;17.80;99.90;;;;;;5125598;27;20405;-78
2023/09/01 10:13:19;;;;;;;4.03;1.50;;;17.40;99.90;;;;;;5077547;28;20396;-78
2023/09/01 10:15:46;;;;;;;5.60;1.95;;;17.80;99.90;;;;;;5111638;28;20895;-78
2023/09/01 10:18:12;;;;;;;4.60;1.65;;;18.10;99.90;;;;;;5111933;28;20396;-77
2023/09/01 10:20:43;;;;;;;4.70;1.60;;;18.00;99.90;;;;;;5077581;28;20506;-78
2023/09/01 10:23:10;;;;;;;6.83;1.80;;;18.10;99.90;;;;;;5094527;28;20400;-78
2023/09/01 10:25:36;;;;;;;6.55;1.70;;;18.00;99.90;;;;;;5108210;28;20919;-78
2023/09/01 10:28:12;;;;;;;4.18;1.60;;;17.60;99.90;;;;;;5111869;28;20424;-78
2023/09/01 10:30:40;;;;;;;4.63;1.70;;;18.10;99.90;;;;;;5093704;28;20407;-78
2023/09/01 10:33:10;;;;;;;4.70;1.63;;;18.40;99.90;;;;;;5091542;28;20466;-76
2023/09/01 10:35:38;;;;;;;4.25;1.55;;;18.80;99.90;;;;;;5093716;28;20397;-85
2023/09/01 10:38:17;;;;;;;6.10;1.93;;;18.70;99.90;;;;;;5109371;28;20432;-84
2023/09/01 10:40:51;;;;;;;4.78;1.63;;;18.80;99.90;;;;;;5092388;28;20394;-85
2023/09/01 10:43:53;;;;;;;6.13;1.85;;;18.80;99.90;;;;;;5092315;28;20901;-84
2023/09/01 10:46:23;;;;;;;4.55;1.90;;;19.20;99.90;;;;;;5067019;28;20968;-85
2023/09/01 10:48:59;;;;;;;5.68;2.10;;;19.40;99.90;;;;;;5108583;28;20482;-85
2023/09/01 10:51:29;;;;;;;6.90;2.10;;;18.40;99.90;;;;;;5093097;28;20414;-85
2023/09/01 10:54:00;;;;;;;6.30;2.67;;;21.20;99.90;;;;;;5092727;28;20398;-85
2023/09/01 10:56:31;;;;;;;4.70;2.28;;;19.50;99.90;;;;;;5075974;28;20908;-85
2023/09/01 10:58:57;;;;;;;5.60;2.38;;;19.50;99.90;;;;;;5126224;27;20413;-84
2023/09/01 11:01:33;;;;;;;5.07;2.10;;;19.80;99.90;;;;;;5088293;28;20521;-85
2023/09/01 11:04:14;;;;;;;5.47;2.23;;;19.50;99.90;;;;;;5113102;28;20400;-85
2023/09/01 11:06:59;;;;;;;7.75;2.65;;;20.20;99.90;;;;;;5095755;28;20404;-86
2023/09/01 11:09:34;;;;;;;7.45;2.63;;;20.30;99.90;;;;;;5113100;28;20456;-86
2023/09/01 11:12:00;;;;;;;8.55;3.15;;;20.60;99.90;;;;;;5094559;28;20450;-82
2023/09/01 11:14:26;;;;;;;9.55;3.40;;;19.90;99.90;;;;;;5094759;28;20416;-84
2023/09/01 11:16:52;;;;;;;8.93;3.40;;;19.80;99.90;;;;;;5095346;28;20408;-85
2023/09/01 11:19:17;;;;;;;7.50;3.10;;;20.20;99.90;;;;;;5095514;28;20487;-85
2023/09/01 11:21:45;;;;;;;7.55;3.28;;;20.30;99.90;;;;;;5079164;28;20439;-85
2023/09/01 11:24:11;;;;;;;5.43;2.60;;;20.10;99.90;;;;;;5095962;28;20513;-86
2023/09/01 11:26:38;;;;;;;8.13;3.20;;;20.10;99.90;;;;;;5085805;28;20434;-85
2023/09/01 11:29:13;;;;;;;6.82;2.65;;;20.40;99.90;;;;;;5094461;28;20443;-82
2023/09/01 11:31:41;;;;;;;6.03;2.85;;;20.70;99.90;;;;;;5095316;28;20390;-81
2023/09/01 11:34:07;;;;;;;8.65;3.13;;;20.40;99.90;;;;;;5095914;28;20397;-85
2023/09/01 11:36:33;;;;;;;7.40;3.28;;;20.70;99.90;;;;;;5097059;28;20480;-86
2023/09/01 11:38:59;;;;;;;7.55;3.10;;;20.40;99.90;;;;;;5096195;28;20406;-85
2023/09/01 11:41:27;;;;;;;12.95;3.58;;;20.90;99.90;;;;;;5146636;27;20416;-84
2023/09/01 11:43:56;;;;;;;10.10;3.60;;;20.10;99.90;;;;;;5150093;27;20942;-84
2023/09/01 11:46:38;;;;;;;7.53;3.45;;;20.60;99.90;;;;;;5116538;28;20717;-84
2023/09/01 11:49:05;;;;;;;8.40;3.38;;;20.80;99.90;;;;;;5115995;28;20419;-85
2023/09/01 11:51:32;;;;;;;8.80;3.20;;;20.80;99.90;;;;;;5082568;28;20479;-78
2023/09/01 11:53:58;;;;;;;7.97;3.28;;;19.00;99.90;;;;;;5112821;28;20507;-77
2023/09/01 11:56:24;;;;;;;7.43;3.38;;;21.00;99.90;;;;;;5114759;28;20403;-77
2023/09/01 11:58:52;;;;;;;8.23;3.60;;;20.80;99.90;;;;;;5102921;28;20417;-77
2023/09/01 12:01:27;;;;;;;8.18;3.40;;;21.40;99.90;;;;;;5137068;28;20396;-77
2023/09/01 12:03:54;;;;;;;9.57;3.37;;;20.70;99.90;;;;;;5110495;28;20404;-77
2023/09/01 12:06:24;;;;;;;8.53;3.30;;;20.80;99.90;;;;;;5098106;28;20396;-77
2023/09/01 12:08:52;;;;;;;7.28;3.53;;;21.20;99.90;;;;;;5130104;27;20457;-77
2023/09/01 12:11:19;;;;;;;6.78;3.10;;;21.70;99.90;;;;;;5114946;28;20400;-78
2023/09/01 12:13:45;;;;;;;7.80;3.80;;;21.30;99.90;;;;;;5124697;28;20396;-77
2023/09/01 12:16:22;;;;;;;6.72;3.70;;;21.00;99.90;;;;;;5135500;28;20395;-79
2023/09/01 12:18:48;;;;;;;8.75;3.67;;;20.30;99.90;;;;;;5133471;28;20415;-77
2023/09/01 12:21:15;;;;;;;9.35;3.92;;;20.40;99.90;;;;;;5116116;28;20429;-78
2023/09/01 12:23:45;;;;;;;8.43;3.47;;;20.80;99.90;;;;;;5114361;28;20899;-78
2023/09/01 12:26:13;;;;;;;8.32;3.60;;;21.20;99.90;;;;;;5114665;28;20741;-78
2023/09/01 12:28:40;;;;;;;7.75;3.67;;;21.20;99.90;;;;;;5064669;28;20635;-78
2023/09/01 12:31:07;;;;;;;9.38;3.78;;;21.20;99.90;;;;;;5093395;28;20402;-78
2023/09/01 12:33:34;;;;;;;8.07;3.80;;;21.30;99.90;;;;;;5093518;28;20477;-78
2023/09/01 12:36:01;;;;;;;7.32;4.32;;;21.50;99.90;;;;;;5076120;28;20429;-78
2023/09/01 12:38:27;;;;;;;10.68;4.25;;;20.80;99.90;;;;;;5076681;28;20404;-78
2023/09/01 12:40:53;;;;;;;8.10;3.63;;;21.20;99.90;;;;;;5093449;28;20761;-77
2023/09/01 12:43:19;;;;;;;9.85;4.28;;;20.80;99.90;;;;;;5076581;28;20398;-79
2023/09/01 12:45:45;;;;;;;8.85;4.10;;;21.10;99.90;;;;;;5076023;28;20493;-78
2023/09/01 12:48:14;;;;;;;6.60;3.60;;;21.40;99.90;;;;;;5092871;28;20512;-78
2023/09/01 12:50:44;;;;;;;9.57;3.78;;;21.80;99.90;;;;;;5088861;28;20404;-78
2023/09/01 12:53:10;;;;;;;8.23;3.80;;;22.30;99.90;;;;;;5113642;28;20887;-78
2023/09/01 12:55:36;;;;;;;9.63;5.22;;;22.30;99.90;;;;;;5113025;28;20453;-77
2023/09/01 12:58:02;;;;;;;7.88;4.00;;;22.30;99.90;;;;;;5079747;28;20733;-78
2023/09/01 13:00:28;;;;;;;8.57;4.40;;;22.60;99.90;;;;;;5113348;28;20412;-78
2023/09/01 13:02:54;;;;;;;7.60;4.03;;;22.20;99.90;;;;;;5113231;28;20404;-77
2023/09/01 13:05:21;;;;;;;7.85;4.72;;;22.20;99.90;;;;;;5078588;28;20425;-78
2023/09/01 13:07:48;;;;;;;9.57;4.90;;;21.40;99.90;;;;;;5109553;28;20456;-76
2023/09/01 13:10:15;;;;;;;9.32;4.70;;;21.70;99.90;;;;;;5092723;28;20401;-77
2023/09/01 13:12:42;;;;;;;8.07;4.65;;;21.50;99.90;;;;;;5124285;27;20415;-84
2023/09/01 13:15:08;;;;;;;9.25;4.68;;;22.00;99.90;;;;;;5096411;28;20400;-78